sensor_id;sensor_type;location;lat;lon;timestamp;temperature;humidity
8711;DHT22;4392;47.400;8.062;2022-08-21T00:02:20;21.40;99.90
8711;DHT22;4392;47.400;8.062;2022-08-21T00:04:46;21.40;99.90
8711;DHT22;4392;47.400;8.062;2022-08-21T00:07:13;21.40;99.90
8711;DHT22;4392;47.400;8.062;2022-08-21T00:09:38;21.40;99.90
8711;DHT22;4392;47.400;8.062;2022-08-21T00:12:05;21.30;99.90
8711;DHT22;4392;47.400;8.062;2022-08-21T00:14:34;21.30;99.90
8711;DHT22;4392;47.400;8.062;2022-08-21T00:17:00;21.30;99.90
8711;DHT22;4392;47.400;8.062;2022-08-21T00:19:27;21.30;99.90
8711;DHT22;4392;47.400;8.062;2022-08-21T00:21:54;21.40;99.90
8711;DHT22;4392;47.400;8.062;2022-08-21T00:24:21;21.40;99.90
8711;DHT22;4392;47.400;8.062;2022-08-21T00:26:48;21.40;99.90
8711;DHT22;4392;47.400;8.062;2022-08-21T00:29:14;21.40;99.90
8711;DHT22;4392;47.400;8.062;2022-08-21T00:31:41;21.30;99.90
8711;DHT22;4392;47.400;8.062;2022-08-21T00:34:07;21.30;99.90
8711;DHT22;4392;47.400;8.062;2022-08-21T00:36:34;21.30;99.90
8711;DHT22;4392;47.400;8.062;2022-08-21T00:39:00;21.30;99.90
8711;DHT22;4392;47.400;8.062;2022-08-21T00:41:27;21.20;99.90
8711;DHT22;4392;47.400;8.062;2022-08-21T00:43:53;21.30;99.90
8711;DHT22;4392;47.400;8.062;2022-08-21T00:46:19;21.20;99.90
8711;DHT22;4392;47.400;8.062;2022-08-21T00:48:44;21.20;99.90
8711;DHT22;4392;47.400;8.062;2022-08-21T00:51:20;21.20;99.90
8711;DHT22;4392;47.400;8.062;2022-08-21T00:53:57;21.20;99.90
8711;DHT22;4392;47.400;8.062;2022-08-21T00:56:25;21.10;99.90
8711;DHT22;4392;47.400;8.062;2022-08-21T00:58:52;21.10;99.90
8711;DHT22;4392;47.400;8.062;2022-08-21T01:01:19;21.10;99.90
8711;DHT22;4392;47.400;8.062;2022-08-21T01:03:47;21.10;99.90
8711;DHT22;4392;47.400;8.062;2022-08-21T01:06:13;21.10;99.90
8711;DHT22;4392;47.400;8.062;2022-08-21T01:08:39;21.10;99.90
8711;DHT22;4392;47.400;8.062;2022-08-21T01:11:05;21.10;99.90
8711;DHT22;4392;47.400;8.062;2022-08-21T01:13:36;21.10;99.90
8711;DHT22;4392;47.400;8.062;2022-08-21T01:16:08;21.10;99.90
8711;DHT22;4392;47.400;8.062;2022-08-21T01:18:34;21.10;99.90
8711;DHT22;4392;47.400;8.062;2022-08-21T01:21:24;21.10;99.90
8711;DHT22;4392;47.400;8.062;2022-08-21T01:23:52;21.10;99.90
8711;DHT22;4392;47.400;8.062;2022-08-21T01:26:22;21.10;99.90
8711;DHT22;4392;47.400;8.062;2022-08-21T01:28:58;21.10;99.90
8711;DHT22;4392;47.400;8.062;2022-08-21T01:31:27;21.10;99.90
8711;DHT22;4392;47.400;8.062;2022-08-21T01:33:55;21.10;99.90
8711;DHT22;4392;47.400;8.062;2022-08-21T01:36:22;21.10;99.90
8711;DHT22;4392;47.400;8.062;2022-08-21T01:38:48;21.00;99.90
8711;DHT22;4392;47.400;8.062;2022-08-21T01:41:14;21.00;99.90
8711;DHT22;4392;47.400;8.062;2022-08-21T01:43:41;21.00;99.90
8711;DHT22;4392;47.400;8.062;2022-08-21T01:46:07;21.10;99.90
8711;DHT22;4392;47.400;8.062;2022-08-21T01:48:33;21.00;99.90
8711;DHT22;4392;47.400;8.062;2022-08-21T01:50:59;21.00;99.90
8711;DHT22;4392;47.400;8.062;2022-08-21T01:53:24;21.00;99.90
8711;DHT22;4392;47.400;8.062;2022-08-21T01:55:50;21.10;99.90
8711;DHT22;4392;47.400;8.062;2022-08-21T01:58:16;21.10;99.90
8711;DHT22;4392;47.400;8.062;2022-08-21T02:00:41;21.10;99.90
8711;DHT22;4392;47.400;8.062;2022-08-21T02:03:08;21.10;99.90
8711;DHT22;4392;47.400;8.062;2022-08-21T02:05:34;21.10;99.90
8711;DHT22;4392;47.400;8.062;2022-08-21T02:08:00;21.20;99.90
8711;DHT22;4392;47.400;8.062;2022-08-21T02:10:29;21.10;99.90
8711;DHT22;4392;47.400;8.062;2022-08-21T02:12:56;21.20;99.90
8711;DHT22;4392;47.400;8.062;2022-08-21T02:15:22;21.10;99.90
8711;DHT22;4392;47.400;8.062;2022-08-21T02:17:52;21.10;99.90
8711;DHT22;4392;47.400;8.062;2022-08-21T02:20:24;21.20;99.90
8711;DHT22;4392;47.400;8.062;2022-08-21T02:22:51;21.10;99.90
8711;DHT22;4392;47.400;8.062;2022-08-21T02:25:20;21.10;99.90
8711;DHT22;4392;47.400;8.062;2022-08-21T02:27:47;20.90;99.90
8711;DHT22;4392;47.400;8.062;2022-08-21T02:30:27;21.00;99.90
8711;DHT22;4392;47.400;8.062;2022-08-21T02:32:53;21.10;99.90
8711;DHT22;4392;47.400;8.062;2022-08-21T02:35:19;21.20;99.90
8711;DHT22;4392;47.400;8.062;2022-08-21T02:37:57;21.50;99.90
8711;DHT22;4392;47.400;8.062;2022-08-21T02:40:30;21.80;99.90
8711;DHT22;4392;47.400;8.062;2022-08-21T02:42:57;22.00;99.90
8711;DHT22;4392;47.400;8.062;2022-08-21T02:45:23;22.00;99.90
8711;DHT22;4392;47.400;8.062;2022-08-21T02:48:07;22.10;99.90
8711;DHT22;4392;47.400;8.062;2022-08-21T02:50:39;22.20;99.90
8711;DHT22;4392;47.400;8.062;2022-08-21T02:53:07;22.20;99.90
8711;DHT22;4392;47.400;8.062;2022-08-21T02:55:37;22.30;99.90
8711;DHT22;4392;47.400;8.062;2022-08-21T02:58:05;22.30;99.90
8711;DHT22;4392;47.400;8.062;2022-08-21T03:00:31;22.30;99.90
8711;DHT22;4392;47.400;8.062;2022-08-21T03:03:00;22.30;99.90
8711;DHT22;4392;47.400;8.062;2022-08-21T03:05:27;22.30;99.90
8711;DHT22;4392;47.400;8.062;2022-08-21T03:07:54;22.40;99.90
8711;DHT22;4392;47.400;8.062;2022-08-21T03:10:21;22.40;99.90
8711;DHT22;4392;47.400;8.062;2022-08-21T03:12:48;22.40;99.90
8711;DHT22;4392;47.400;8.062;2022-08-21T03:15:16;22.50;99.90
8711;DHT22;4392;47.400;8.062;2022-08-21T03:17:43;22.40;99.90
8711;DHT22;4392;47.400;8.062;2022-08-21T03:20:10;22.20;99.90
8711;DHT22;4392;47.400;8.062;2022-08-21T03:22:36;22.00;99.90
8711;DHT22;4392;47.400;8.062;2022-08-21T03:25:02;21.90;99.90
8711;DHT22;4392;47.400;8.062;2022-08-21T03:27:29;21.80;99.90
8711;DHT22;4392;47.400;8.062;2022-08-21T03:30:00;21.60;99.90
8711;DHT22;4392;47.400;8.062;2022-08-21T03:32:26;21.30;99.90
8711;DHT22;4392;47.400;8.062;2022-08-21T03:34:52;21.30;99.90
8711;DHT22;4392;47.400;8.062;2022-08-21T03:37:18;21.30;99.90
8711;DHT22;4392;47.400;8.062;2022-08-21T03:39:44;21.30;99.90
8711;DHT22;4392;47.400;8.062;2022-08-21T03:42:14;21.30;99.90
8711;DHT22;4392;47.400;8.062;2022-08-21T03:44:44;21.40;99.90
8711;DHT22;4392;47.400;8.062;2022-08-21T03:47:10;21.30;99.90
8711;DHT22;4392;47.400;8.062;2022-08-21T03:49:38;21.30;99.90
8711;DHT22;4392;47.400;8.062;2022-08-21T03:52:04;21.20;99.90
8711;DHT22;4392;47.400;8.062;2022-08-21T03:54:30;21.40;99.90
8711;DHT22;4392;47.400;8.062;2022-08-21T03:56:56;21.80;99.90
8711;DHT22;4392;47.400;8.062;2022-08-21T03:59:22;22.00;99.90
8711;DHT22;4392;47.400;8.062;2022-08-21T04:01:56;22.10;99.90
8711;DHT22;4392;47.400;8.062;2022-08-21T04:04:22;22.20;99.90
8711;DHT22;4392;47.400;8.062;2022-08-21T04:06:51;22.20;99.90
8711;DHT22;4392;47.400;8.062;2022-08-21T04:09:18;22.30;99.90
8711;DHT22;4392;47.400;8.062;2022-08-21T04:11:43;22.30;99.90
8711;DHT22;4392;47.400;8.062;2022-08-21T04:14:13;22.40;99.90
8711;DHT22;4392;47.400;8.062;2022-08-21T04:16:40;22.40;99.90
8711;DHT22;4392;47.400;8.062;2022-08-21T04:19:08;22.40;99.90
8711;DHT22;4392;47.400;8.062;2022-08-21T04:21:35;22.50;99.90
8711;DHT22;4392;47.400;8.062;2022-08-21T04:24:01;22.50;99.90
8711;DHT22;4392;47.400;8.062;2022-08-21T04:26:28;22.50;99.90
8711;DHT22;4392;47.400;8.062;2022-08-21T04:28:57;22.30;99.90
8711;DHT22;4392;47.400;8.062;2022-08-21T04:31:25;22.40;99.90
8711;DHT22;4392;47.400;8.062;2022-08-21T04:33:51;22.40;99.90
8711;DHT22;4392;47.400;8.062;2022-08-21T04:36:17;22.40;99.90
8711;DHT22;4392;47.400;8.062;2022-08-21T04:38:43;22.40;99.90
8711;DHT22;4392;47.400;8.062;2022-08-21T04:41:11;22.40;99.90
8711;DHT22;4392;47.400;8.062;2022-08-21T04:43:38;22.40;99.90
8711;DHT22;4392;47.400;8.062;2022-08-21T04:46:06;22.30;99.90
8711;DHT22;4392;47.400;8.062;2022-08-21T04:48:32;22.30;99.90
8711;DHT22;4392;47.400;8.062;2022-08-21T04:51:09;22.30;99.90
8711;DHT22;4392;47.400;8.062;2022-08-21T04:53:50;22.30;99.90
8711;DHT22;4392;47.400;8.062;2022-08-21T04:56:26;22.30;99.90
8711;DHT22;4392;47.400;8.062;2022-08-21T04:58:55;22.30;99.90
8711;DHT22;4392;47.400;8.062;2022-08-21T05:01:23;22.20;99.90
8711;DHT22;4392;47.400;8.062;2022-08-21T05:03:55;22.20;99.90
8711;DHT22;4392;47.400;8.062;2022-08-21T05:06:22;22.20;99.90
8711;DHT22;4392;47.400;8.062;2022-08-21T05:08:49;22.20;99.90
8711;DHT22;4392;47.400;8.062;2022-08-21T05:11:16;22.10;99.90
8711;DHT22;4392;47.400;8.062;2022-08-21T05:13:41;22.20;99.90
8711;DHT22;4392;47.400;8.062;2022-08-21T05:16:07;22.00;99.90
8711;DHT22;4392;47.400;8.062;2022-08-21T05:18:33;21.80;99.90
8711;DHT22;4392;47.400;8.062;2022-08-21T05:20:59;21.60;99.90
8711;DHT22;4392;47.400;8.062;2022-08-21T05:23:25;21.40;99.90
8711;DHT22;4392;47.400;8.062;2022-08-21T05:25:52;21.30;99.90
8711;DHT22;4392;47.400;8.062;2022-08-21T05:28:18;21.20;99.90
8711;DHT22;4392;47.400;8.062;2022-08-21T05:30:44;21.10;99.90
8711;DHT22;4392;47.400;8.062;2022-08-21T05:33:10;21.10;99.90
8711;DHT22;4392;47.400;8.062;2022-08-21T05:35:39;20.90;99.90
8711;DHT22;4392;47.400;8.062;2022-08-21T05:38:05;21.00;99.90
8711;DHT22;4392;47.400;8.062;2022-08-21T05:40:32;21.00;99.90
8711;DHT22;4392;47.400;8.062;2022-08-21T05:42:58;21.00;99.90
8711;DHT22;4392;47.400;8.062;2022-08-21T05:45:29;21.00;99.90
8711;DHT22;4392;47.400;8.062;2022-08-21T05:47:55;21.00;99.90
8711;DHT22;4392;47.400;8.062;2022-08-21T05:50:21;21.30;99.90
8711;DHT22;4392;47.400;8.062;2022-08-21T05:52:47;21.50;99.90
8711;DHT22;4392;47.400;8.062;2022-08-21T05:55:13;21.60;99.90
8711;DHT22;4392;47.400;8.062;2022-08-21T05:57:40;21.60;99.90
8711;DHT22;4392;47.400;8.062;2022-08-21T06:00:08;21.70;99.90
8711;DHT22;4392;47.400;8.062;2022-08-21T06:02:39;21.70;99.90
8711;DHT22;4392;47.400;8.062;2022-08-21T06:05:07;21.70;99.90
8711;DHT22;4392;47.400;8.062;2022-08-21T06:07:33;21.80;99.90
8711;DHT22;4392;47.400;8.062;2022-08-21T06:10:02;21.80;99.90
8711;DHT22;4392;47.400;8.062;2022-08-21T06:12:28;21.90;99.90
8711;DHT22;4392;47.400;8.062;2022-08-21T06:14:54;21.90;99.90
8711;DHT22;4392;47.400;8.062;2022-08-21T06:17:19;21.70;99.90
8711;DHT22;4392;47.400;8.062;2022-08-21T06:19:49;21.60;99.90
8711;DHT22;4392;47.400;8.062;2022-08-21T06:22:15;21.50;99.90
8711;DHT22;4392;47.400;8.062;2022-08-21T06:24:41;21.50;99.90
8711;DHT22;4392;47.400;8.062;2022-08-21T06:27:09;21.40;99.90
8711;DHT22;4392;47.400;8.062;2022-08-21T06:29:35;21.40;99.90
8711;DHT22;4392;47.400;8.062;2022-08-21T06:32:02;21.40;99.90
8711;DHT22;4392;47.400;8.062;2022-08-21T06:34:28;21.40;99.90
8711;DHT22;4392;47.400;8.062;2022-08-21T06:36:53;21.40;99.90
8711;DHT22;4392;47.400;8.062;2022-08-21T06:39:19;21.40;99.90
8711;DHT22;4392;47.400;8.062;2022-08-21T06:41:45;21.40;99.90
8711;DHT22;4392;47.400;8.062;2022-08-21T06:44:10;21.40;99.90
8711;DHT22;4392;47.400;8.062;2022-08-21T06:46:36;21.30;99.90
8711;DHT22;4392;47.400;8.062;2022-08-21T06:49:05;21.20;99.90
8711;DHT22;4392;47.400;8.062;2022-08-21T06:51:30;21.20;99.90
8711;DHT22;4392;47.400;8.062;2022-08-21T06:53:56;21.10;99.90
8711;DHT22;4392;47.400;8.062;2022-08-21T06:56:22;21.20;99.90
8711;DHT22;4392;47.400;8.062;2022-08-21T06:58:48;21.30;99.90
8711;DHT22;4392;47.400;8.062;2022-08-21T07:01:13;21.30;99.90
8711;DHT22;4392;47.400;8.062;2022-08-21T07:03:41;21.30;99.90
8711;DHT22;4392;47.400;8.062;2022-08-21T07:06:08;21.30;99.90
8711;DHT22;4392;47.400;8.062;2022-08-21T07:08:35;21.30;99.90
8711;DHT22;4392;47.400;8.062;2022-08-21T07:11:04;21.30;99.90
8711;DHT22;4392;47.400;8.062;2022-08-21T07:13:31;21.40;99.90
8711;DHT22;4392;47.400;8.062;2022-08-21T07:15:57;21.40;99.90
8711;DHT22;4392;47.400;8.062;2022-08-21T07:18:22;21.50;99.90
8711;DHT22;4392;47.400;8.062;2022-08-21T07:20:48;21.50;99.90
8711;DHT22;4392;47.400;8.062;2022-08-21T07:23:23;21.50;99.90
8711;DHT22;4392;47.400;8.062;2022-08-21T07:25:50;21.50;99.90
8711;DHT22;4392;47.400;8.062;2022-08-21T07:28:16;21.50;99.90
8711;DHT22;4392;47.400;8.062;2022-08-21T07:30:42;21.40;99.90
8711;DHT22;4392;47.400;8.062;2022-08-21T07:33:07;21.30;99.90
8711;DHT22;4392;47.400;8.062;2022-08-21T07:35:33;21.40;99.90
8711;DHT22;4392;47.400;8.062;2022-08-21T07:37:59;21.40;99.90
8711;DHT22;4392;47.400;8.062;2022-08-21T07:40:25;21.30;99.90
8711;DHT22;4392;47.400;8.062;2022-08-21T07:42:51;21.30;99.90
8711;DHT22;4392;47.400;8.062;2022-08-21T07:45:19;21.30;99.90
8711;DHT22;4392;47.400;8.062;2022-08-21T07:47:45;21.40;99.90
8711;DHT22;4392;47.400;8.062;2022-08-21T07:50:14;21.40;99.90
8711;DHT22;4392;47.400;8.062;2022-08-21T07:52:41;21.40;99.90
8711;DHT22;4392;47.400;8.062;2022-08-21T07:55:09;21.40;99.90
8711;DHT22;4392;47.400;8.062;2022-08-21T07:57:36;21.50;99.90
8711;DHT22;4392;47.400;8.062;2022-08-21T08:00:07;21.50;99.90
8711;DHT22;4392;47.400;8.062;2022-08-21T08:02:33;21.60;99.90
8711;DHT22;4392;47.400;8.062;2022-08-21T08:05:05;21.60;99.90
8711;DHT22;4392;47.400;8.062;2022-08-21T08:07:31;21.50;99.90
8711;DHT22;4392;47.400;8.062;2022-08-21T08:09:57;21.50;99.90
8711;DHT22;4392;47.400;8.062;2022-08-21T08:12:26;21.60;99.90
8711;DHT22;4392;47.400;8.062;2022-08-21T08:14:56;21.60;99.90
8711;DHT22;4392;47.400;8.062;2022-08-21T08:17:22;21.20;99.90
8711;DHT22;4392;47.400;8.062;2022-08-21T08:19:49;21.30;99.90
8711;DHT22;4392;47.400;8.062;2022-08-21T08:22:16;21.50;99.90
8711;DHT22;4392;47.400;8.062;2022-08-21T08:24:45;21.50;99.90
8711;DHT22;4392;47.400;8.062;2022-08-21T08:27:11;21.50;99.90
8711;DHT22;4392;47.400;8.062;2022-08-21T08:29:37;21.60;99.90
8711;DHT22;4392;47.400;8.062;2022-08-21T08:32:04;21.70;99.90
8711;DHT22;4392;47.400;8.062;2022-08-21T08:34:30;21.80;99.90
8711;DHT22;4392;47.400;8.062;2022-08-21T08:36:56;21.80;99.90
8711;DHT22;4392;47.400;8.062;2022-08-21T08:39:23;21.40;99.90
8711;DHT22;4392;47.400;8.062;2022-08-21T08:41:49;21.50;99.90
8711;DHT22;4392;47.400;8.062;2022-08-21T08:44:17;21.60;99.90
8711;DHT22;4392;47.400;8.062;2022-08-21T08:46:47;21.70;99.90
8711;DHT22;4392;47.400;8.062;2022-08-21T08:49:20;21.70;99.90
8711;DHT22;4392;47.400;8.062;2022-08-21T08:52:03;21.80;99.90
8711;DHT22;4392;47.400;8.062;2022-08-21T08:54:39;21.90;99.90
8711;DHT22;4392;47.400;8.062;2022-08-21T08:57:10;22.00;99.90
8711;DHT22;4392;47.400;8.062;2022-08-21T08:59:42;22.00;99.90
8711;DHT22;4392;47.400;8.062;2022-08-21T09:02:11;22.00;99.90
8711;DHT22;4392;47.400;8.062;2022-08-21T09:04:37;21.80;99.90
8711;DHT22;4392;47.400;8.062;2022-08-21T09:12:56;22.00;99.90
8711;DHT22;4392;47.400;8.062;2022-08-21T09:24:06;22.30;99.90
8711;DHT22;4392;47.400;8.062;2022-08-21T09:26:50;22.10;99.90
8711;DHT22;4392;47.400;8.062;2022-08-21T09:29:20;22.30;99.90
8711;DHT22;4392;47.400;8.062;2022-08-21T09:31:47;22.40;99.90
8711;DHT22;4392;47.400;8.062;2022-08-21T09:34:32;22.40;99.90
8711;DHT22;4392;47.400;8.062;2022-08-21T09:36:58;22.50;99.90
8711;DHT22;4392;47.400;8.062;2022-08-21T09:39:30;22.50;99.90
8711;DHT22;4392;47.400;8.062;2022-08-21T09:42:07;22.30;99.90
8711;DHT22;4392;47.400;8.062;2022-08-21T09:44:37;22.10;99.90
8711;DHT22;4392;47.400;8.062;2022-08-21T09:47:09;22.00;99.90
8711;DHT22;4392;47.400;8.062;2022-08-21T09:49:40;22.20;99.90
8711;DHT22;4392;47.400;8.062;2022-08-21T09:52:21;22.30;99.90
8711;DHT22;4392;47.400;8.062;2022-08-21T09:54:52;22.20;99.90
8711;DHT22;4392;47.400;8.062;2022-08-21T09:57:27;22.20;99.90
8711;DHT22;4392;47.400;8.062;2022-08-21T10:00:20;22.20;99.90
8711;DHT22;4392;47.400;8.062;2022-08-21T10:02:49;22.30;99.90
8711;DHT22;4392;47.400;8.062;2022-08-21T10:05:23;22.40;99.90
8711;DHT22;4392;47.400;8.062;2022-08-21T10:07:49;22.40;99.90
8711;DHT22;4392;47.400;8.062;2022-08-21T10:10:22;22.50;99.90
8711;DHT22;4392;47.400;8.062;2022-08-21T10:13:13;22.50;99.90
8711;DHT22;4392;47.400;8.062;2022-08-21T10:26:31;22.40;99.90
8711;DHT22;4392;47.400;8.062;2022-08-21T10:29:55;22.60;99.90
8711;DHT22;4392;47.400;8.062;2022-08-21T10:37:40;22.70;99.90
8711;DHT22;4392;47.400;8.062;2022-08-21T10:47:56;22.60;99.90
8711;DHT22;4392;47.400;8.062;2022-08-21T10:50:48;22.70;99.90
8711;DHT22;4392;47.400;8.062;2022-08-21T10:56:18;23.00;99.90
8711;DHT22;4392;47.400;8.062;2022-08-21T11:02:09;23.10;99.90
8711;DHT22;4392;47.400;8.062;2022-08-21T11:04:54;23.10;99.90
8711;DHT22;4392;47.400;8.062;2022-08-21T11:07:42;23.20;99.90
8711;DHT22;4392;47.400;8.062;2022-08-21T11:13:06;23.20;99.90
8711;DHT22;4392;47.400;8.062;2022-08-21T11:18:26;23.20;99.90
8711;DHT22;4392;47.400;8.062;2022-08-21T11:23:53;23.20;99.90
8711;DHT22;4392;47.400;8.062;2022-08-21T11:29:35;23.30;99.90
8711;DHT22;4392;47.400;8.062;2022-08-21T11:40:54;23.10;99.90
8711;DHT22;4392;47.400;8.062;2022-08-21T11:51:22;23.00;99.80
8711;DHT22;4392;47.400;8.062;2022-08-21T11:57:02;23.00;98.70
8711;DHT22;4392;47.400;8.062;2022-08-21T11:59:59;23.10;99.90
8711;DHT22;4392;47.400;8.062;2022-08-21T12:02:31;23.20;99.90
8711;DHT22;4392;47.400;8.062;2022-08-21T12:05:24;23.30;99.70
8711;DHT22;4392;47.400;8.062;2022-08-21T12:08:03;23.30;95.60
8711;DHT22;4392;47.400;8.062;2022-08-21T12:10:40;23.30;92.80
8711;DHT22;4392;47.400;8.062;2022-08-21T12:13:11;23.30;94.10
8711;DHT22;4392;47.400;8.062;2022-08-21T12:15:47;23.40;95.00
8711;DHT22;4392;47.400;8.062;2022-08-21T12:18:31;23.50;95.20
8711;DHT22;4392;47.400;8.062;2022-08-21T12:21:03;23.50;94.60
8711;DHT22;4392;47.400;8.062;2022-08-21T12:23:44;23.50;96.00
8711;DHT22;4392;47.400;8.062;2022-08-21T12:28:45;23.50;94.10
8711;DHT22;4392;47.400;8.062;2022-08-21T12:31:24;23.50;93.50
8711;DHT22;4392;47.400;8.062;2022-08-21T12:34:01;23.60;92.30
8711;DHT22;4392;47.400;8.062;2022-08-21T12:36:44;23.70;94.10
8711;DHT22;4392;47.400;8.062;2022-08-21T12:39:19;23.70;91.30
8711;DHT22;4392;47.400;8.062;2022-08-21T12:42:01;23.80;90.00
8711;DHT22;4392;47.400;8.062;2022-08-21T12:44:43;23.90;91.30
8711;DHT22;4392;47.400;8.062;2022-08-21T12:47:29;24.00;92.00
8711;DHT22;4392;47.400;8.062;2022-08-21T12:50:08;24.00;90.80
8711;DHT22;4392;47.400;8.062;2022-08-21T12:52:45;24.30;87.80
8711;DHT22;4392;47.400;8.062;2022-08-21T12:55:15;24.30;87.00
8711;DHT22;4392;47.400;8.062;2022-08-21T12:57:50;24.40;87.20
8711;DHT22;4392;47.400;8.062;2022-08-21T13:00:22;24.40;86.30
8711;DHT22;4392;47.400;8.062;2022-08-21T13:02:50;24.60;85.70
8711;DHT22;4392;47.400;8.062;2022-08-21T13:05:28;24.60;82.90
8711;DHT22;4392;47.400;8.062;2022-08-21T13:07:54;24.70;82.00
8711;DHT22;4392;47.400;8.062;2022-08-21T13:10:29;25.00;80.20
8711;DHT22;4392;47.400;8.062;2022-08-21T13:12:58;25.00;78.60
8711;DHT22;4392;47.400;8.062;2022-08-21T13:15:33;25.00;78.10
8711;DHT22;4392;47.400;8.062;2022-08-21T13:18:01;25.00;75.50
8711;DHT22;4392;47.400;8.062;2022-08-21T13:20:36;25.10;76.20
8711;DHT22;4392;47.400;8.062;2022-08-21T13:23:07;25.20;73.60
8711;DHT22;4392;47.400;8.062;2022-08-21T13:25:37;25.30;75.10
8711;DHT22;4392;47.400;8.062;2022-08-21T13:28:07;25.40;73.10
8711;DHT22;4392;47.400;8.062;2022-08-21T13:30:37;25.40;73.10
8711;DHT22;4392;47.400;8.062;2022-08-21T13:33:05;25.50;72.70
8711;DHT22;4392;47.400;8.062;2022-08-21T13:36:03;25.60;73.20
8711;DHT22;4392;47.400;8.062;2022-08-21T13:38:33;25.70;73.40
8711;DHT22;4392;47.400;8.062;2022-08-21T13:41:20;25.80;72.20
8711;DHT22;4392;47.400;8.062;2022-08-21T13:43:57;26.00;71.90
8711;DHT22;4392;47.400;8.062;2022-08-21T13:46:28;25.70;70.00
8711;DHT22;4392;47.400;8.062;2022-08-21T13:48:55;25.80;69.50
8711;DHT22;4392;47.400;8.062;2022-08-21T13:51:21;25.70;69.50
8711;DHT22;4392;47.400;8.062;2022-08-21T13:53:49;25.50;72.30
8711;DHT22;4392;47.400;8.062;2022-08-21T13:58:54;25.40;72.20
8711;DHT22;4392;47.400;8.062;2022-08-21T14:01:25;25.40;72.70
8711;DHT22;4392;47.400;8.062;2022-08-21T14:03:56;25.40;75.00
8711;DHT22;4392;47.400;8.062;2022-08-21T14:06:27;25.40;75.10
8711;DHT22;4392;47.400;8.062;2022-08-21T14:09:00;25.60;68.10
8711;DHT22;4392;47.400;8.062;2022-08-21T14:11:28;25.80;66.30
8711;DHT22;4392;47.400;8.062;2022-08-21T14:14:00;26.10;63.50
8711;DHT22;4392;47.400;8.062;2022-08-21T14:16:43;26.40;61.10
8711;DHT22;4392;47.400;8.062;2022-08-21T14:19:18;26.60;59.50
8711;DHT22;4392;47.400;8.062;2022-08-21T14:21:45;26.60;62.40
8711;DHT22;4392;47.400;8.062;2022-08-21T14:26:52;26.90;59.40
8711;DHT22;4392;47.400;8.062;2022-08-21T14:29:19;27.10;58.00
8711;DHT22;4392;47.400;8.062;2022-08-21T14:31:59;27.30;56.60
8711;DHT22;4392;47.400;8.062;2022-08-21T14:34:33;27.30;59.00
8711;DHT22;4392;47.400;8.062;2022-08-21T14:36:58;27.50;58.70
8711;DHT22;4392;47.400;8.062;2022-08-21T14:39:24;27.40;60.00
8711;DHT22;4392;47.400;8.062;2022-08-21T14:41:51;27.20;63.10
8711;DHT22;4392;47.400;8.062;2022-08-21T14:44:18;27.20;60.50
8711;DHT22;4392;47.400;8.062;2022-08-21T14:46:45;27.50;57.60
8711;DHT22;4392;47.400;8.062;2022-08-21T14:49:11;27.60;58.10
8711;DHT22;4392;47.400;8.062;2022-08-21T14:51:37;27.70;56.70
8711;DHT22;4392;47.400;8.062;2022-08-21T14:54:06;27.70;57.70
8711;DHT22;4392;47.400;8.062;2022-08-21T14:56:33;27.70;57.70
8711;DHT22;4392;47.400;8.062;2022-08-21T14:59:04;27.70;57.80
8711;DHT22;4392;47.400;8.062;2022-08-21T15:01:32;27.70;57.40
8711;DHT22;4392;47.400;8.062;2022-08-21T15:03:58;27.60;57.20
8711;DHT22;4392;47.400;8.062;2022-08-21T15:06:23;27.80;56.40
8711;DHT22;4392;47.400;8.062;2022-08-21T15:08:49;27.80;56.20
8711;DHT22;4392;47.400;8.062;2022-08-21T15:11:19;27.90;55.90
8711;DHT22;4392;47.400;8.062;2022-08-21T15:13:53;28.20;55.60
8711;DHT22;4392;47.400;8.062;2022-08-21T15:16:20;28.40;54.90
8711;DHT22;4392;47.400;8.062;2022-08-21T15:18:46;28.40;53.00
8711;DHT22;4392;47.400;8.062;2022-08-21T15:21:12;28.30;52.70
8711;DHT22;4392;47.400;8.062;2022-08-21T15:23:37;28.30;53.80
8711;DHT22;4392;47.400;8.062;2022-08-21T15:26:04;28.30;52.80
8711;DHT22;4392;47.400;8.062;2022-08-21T15:28:35;28.40;52.10
8711;DHT22;4392;47.400;8.062;2022-08-21T15:31:03;28.50;51.30
8711;DHT22;4392;47.400;8.062;2022-08-21T15:33:29;28.50;50.60
8711;DHT22;4392;47.400;8.062;2022-08-21T15:35:56;28.40;51.80
8711;DHT22;4392;47.400;8.062;2022-08-21T15:38:22;28.40;50.70
8711;DHT22;4392;47.400;8.062;2022-08-21T15:40:50;28.60;51.00
8711;DHT22;4392;47.400;8.062;2022-08-21T15:43:27;28.60;50.70
8711;DHT22;4392;47.400;8.062;2022-08-21T15:45:53;28.50;51.20
8711;DHT22;4392;47.400;8.062;2022-08-21T15:48:19;28.50;52.00
8711;DHT22;4392;47.400;8.062;2022-08-21T15:50:46;28.40;53.90
8711;DHT22;4392;47.400;8.062;2022-08-21T15:53:12;28.40;53.50
8711;DHT22;4392;47.400;8.062;2022-08-21T15:55:38;28.40;53.30
8711;DHT22;4392;47.400;8.062;2022-08-21T15:58:04;28.50;54.10
8711;DHT22;4392;47.400;8.062;2022-08-21T16:00:32;28.30;54.70
8711;DHT22;4392;47.400;8.062;2022-08-21T16:02:59;28.30;54.60
8711;DHT22;4392;47.400;8.062;2022-08-21T16:05:26;28.10;54.70
8711;DHT22;4392;47.400;8.062;2022-08-21T16:07:51;28.00;53.60
8711;DHT22;4392;47.400;8.062;2022-08-21T16:10:22;28.00;55.10
8711;DHT22;4392;47.400;8.062;2022-08-21T16:13:18;28.10;54.40
8711;DHT22;4392;47.400;8.062;2022-08-21T16:15:45;28.30;54.80
8711;DHT22;4392;47.400;8.062;2022-08-21T16:18:11;28.40;53.70
8711;DHT22;4392;47.400;8.062;2022-08-21T16:20:37;28.60;52.80
8711;DHT22;4392;47.400;8.062;2022-08-21T16:23:03;28.70;52.10
8711;DHT22;4392;47.400;8.062;2022-08-21T16:25:29;28.70;52.70
8711;DHT22;4392;47.400;8.062;2022-08-21T16:27:59;28.80;52.10
8711;DHT22;4392;47.400;8.062;2022-08-21T16:30:25;28.90;52.70
8711;DHT22;4392;47.400;8.062;2022-08-21T16:32:52;28.70;52.70
8711;DHT22;4392;47.400;8.062;2022-08-21T16:35:21;28.50;52.00
8711;DHT22;4392;47.400;8.062;2022-08-21T16:37:50;28.50;51.70
8711;DHT22;4392;47.400;8.062;2022-08-21T16:40:18;28.40;52.00
8711;DHT22;4392;47.400;8.062;2022-08-21T16:42:44;28.30;52.40
8711;DHT22;4392;47.400;8.062;2022-08-21T16:45:17;28.20;53.10
8711;DHT22;4392;47.400;8.062;2022-08-21T16:47:44;28.20;52.80
8711;DHT22;4392;47.400;8.062;2022-08-21T16:50:14;28.20;53.20
8711;DHT22;4392;47.400;8.062;2022-08-21T16:52:40;28.20;53.80
8711;DHT22;4392;47.400;8.062;2022-08-21T16:55:06;28.20;53.80
8711;DHT22;4392;47.400;8.062;2022-08-21T16:57:32;28.10;53.70
8711;DHT22;4392;47.400;8.062;2022-08-21T16:59:58;28.20;54.00
8711;DHT22;4392;47.400;8.062;2022-08-21T17:02:38;28.00;52.90
8711;DHT22;4392;47.400;8.062;2022-08-21T17:05:05;28.10;54.70
8711;DHT22;4392;47.400;8.062;2022-08-21T17:07:32;28.10;55.40
8711;DHT22;4392;47.400;8.062;2022-08-21T17:09:58;28.00;54.00
8711;DHT22;4392;47.400;8.062;2022-08-21T17:12:23;27.90;53.80
8711;DHT22;4392;47.400;8.062;2022-08-21T17:14:52;27.90;55.50
8711;DHT22;4392;47.400;8.062;2022-08-21T17:17:18;27.90;55.10
8711;DHT22;4392;47.400;8.062;2022-08-21T17:19:44;27.90;55.50
8711;DHT22;4392;47.400;8.062;2022-08-21T17:22:10;27.90;55.80
8711;DHT22;4392;47.400;8.062;2022-08-21T17:24:36;27.90;54.90
8711;DHT22;4392;47.400;8.062;2022-08-21T17:27:04;27.80;55.40
8711;DHT22;4392;47.400;8.062;2022-08-21T17:29:35;27.70;55.00
8711;DHT22;4392;47.400;8.062;2022-08-21T17:32:04;27.60;56.20
8711;DHT22;4392;47.400;8.062;2022-08-21T17:34:32;27.60;56.40
8711;DHT22;4392;47.400;8.062;2022-08-21T17:36:58;27.50;56.70
8711;DHT22;4392;47.400;8.062;2022-08-21T17:39:24;27.40;57.20
8711;DHT22;4392;47.400;8.062;2022-08-21T17:41:50;27.20;57.30